Independence — WDF3297 — position and weather

sailwx.info

Track history (hours):
 
Tides and Currents Weather Stations Pressure Air Temp Water Temp Dewpoint Dewpoint Depression Visibility Wind Speed Wind Dir Waves Ship Positions

Independence

Owner: American Cruise Lines Inc., Delmar, DE. More information available from US FCC via Universal Licensing System and Coast Guard Vessel Documentation Center.

Last reported at 2016-May-03 17:17 UTC. Time now 2016-May-03 23:57 UTC.
Position N 35°01' W 076°40'.

Length 65 m; draft 2.5 m.

Type: Passenger vessel. MMSI: 367438210.

Date/timePositionNaut miles runAvg speedWind from/ knotsBaromVisibWave heightAir tempDewpointWater temp
2016-May-03 17:17N 35°01' W 076°40'4 5.0
2016-May-03 16:31N 34°57' W 076°40'5 4.9
2016-May-03 15:33N 34°52' W 076°42'6 6.4
2016-May-03 14:33N 34°46' W 076°41'4 3.8
2016-May-03 13:33N 34°42' W 076°41'3 3.1
2016-May-03 12:34N 34°39' W 076°41'1111.1
2016-May-03 11:33N 34°35' W 076°53'  
2016-Apr-27 21:33N 32°12' W 080°47'4 0.9
2016-Apr-27 17:29N 32°08' W 080°49'0 0.0
2016-Apr-27 16:23N 32°08' W 080°49'0 0.0
2016-Apr-27 15:23N 32°08' W 080°49'1 0.6
2016-Apr-27 13:34N 32°09' W 080°50'5 5.1
2016-Apr-27 12:33N 32°05' W 080°55'5 5.2
2016-Apr-27 11:33N 32°06' W 081°01'4 3.9
2016-Apr-27 10:31N 32°05' W 081°05'0 0.0
2016-Apr-27 09:31N 32°05' W 081°05'0 0.0
2016-Apr-27 08:31N 32°05' W 081°05'0 0.0
2016-Apr-27 07:31N 32°05' W 081°05'0 0.0
2016-Apr-27 06:31N 32°05' W 081°05'0 0.0
2016-Apr-27 05:31N 32°05' W 081°05'0 0.0
2016-Apr-27 04:31N 32°05' W 081°05'0 0.0
2016-Apr-27 03:31N 32°05' W 081°05'0 0.0
2016-Apr-27 02:31N 32°05' W 081°05'0 0.0
2016-Apr-27 01:31N 32°05' W 081°05'0 0.0
2016-Apr-27 00:25N 32°05' W 081°05'0 0.0
2016-Apr-26 23:31N 32°05' W 081°05'0 0.0
2016-Apr-26 22:31N 32°05' W 081°05'0 0.0
2016-Apr-26 21:31N 32°05' W 081°05'0 0.0
2016-Apr-26 20:31N 32°05' W 081°05'0 0.0
2016-Apr-26 19:31N 32°05' W 081°05'0 0.0
2016-Apr-26 18:31N 32°05' W 081°05'0 0.0
2016-Apr-26 17:31N 32°05' W 081°05'0 0.0
2016-Apr-26 16:31N 32°05' W 081°05'0 0.0
2016-Apr-26 15:31N 32°05' W 081°05'0 0.0
2016-Apr-26 14:31N 32°05' W 081°05'0 0.0
2016-Apr-26 13:31N 32°05' W 081°05'0 0.0
2016-Apr-26 12:31N 32°05' W 081°05'0 0.0
2016-Apr-26 11:31N 32°05' W 081°05'0 0.0
2016-Apr-26 10:31N 32°05' W 081°05'0 0.0
2016-Apr-26 09:31N 32°05' W 081°05'0 0.0
2016-Apr-26 08:31N 32°05' W 081°05'0 0.0
2016-Apr-26 07:31N 32°05' W 081°05'0 0.0
2016-Apr-26 06:31N 32°05' W 081°05'0 0.0
2016-Apr-26 05:31N 32°05' W 081°05'0 0.0
2016-Apr-26 04:31N 32°05' W 081°05'0 0.0
2016-Apr-26 03:33N 32°05' W 081°05'5 5.0
2016-Apr-26 02:34N 32°04' W 080°60'3 3.4
2016-Apr-26 01:33N 32°01' W 081°01'6 6.0
2016-Apr-26 00:34N 31°55' W 081°04'5 4.3
2016-Apr-25 23:19N 31°51' W 081°08'  
Track history (hours):
 
Tides and Currents Weather Stations Pressure Air Temp Water Temp Dewpoint Dewpoint Depression Visibility Wind Speed Wind Dir Waves Ship Positions

Independence

Owner: American Cruise Lines Inc., Delmar, DE. More information available from US FCC via Universal Licensing System and Coast Guard Vessel Documentation Center.

Last reported at 2016-May-03 17:17 UTC. Time now 2016-May-03 23:57 UTC.
Position N 35°01' W 076°40'.

Length 65 m; draft 2.5 m.

Type: Passenger vessel. MMSI: 367438210.

Date/timePositionNaut miles runAvg speedWind from/ knotsBaromVisibWave heightAir tempDewpointWater temp
2016-May-03 17:17N 35°01' W 076°40'4 5.0
2016-May-03 16:31N 34°57' W 076°40'5 4.9
2016-May-03 15:33N 34°52' W 076°42'6 6.4
2016-May-03 14:33N 34°46' W 076°41'4 3.8
2016-May-03 13:33N 34°42' W 076°41'3 3.1
2016-May-03 12:34N 34°39' W 076°41'1111.1
2016-May-03 11:33N 34°35' W 076°53'  
2016-Apr-27 21:33N 32°12' W 080°47'4 0.9
2016-Apr-27 17:29N 32°08' W 080°49'0 0.0
2016-Apr-27 16:23N 32°08' W 080°49'0 0.0
2016-Apr-27 15:23N 32°08' W 080°49'1 0.6
2016-Apr-27 13:34N 32°09' W 080°50'5 5.1
2016-Apr-27 12:33N 32°05' W 080°55'5 5.2
2016-Apr-27 11:33N 32°06' W 081°01'4 3.9
2016-Apr-27 10:31N 32°05' W 081°05'0 0.0
2016-Apr-27 09:31N 32°05' W 081°05'0 0.0
2016-Apr-27 08:31N 32°05' W 081°05'0 0.0
2016-Apr-27 07:31N 32°05' W 081°05'0 0.0
2016-Apr-27 06:31N 32°05' W 081°05'0 0.0
2016-Apr-27 05:31N 32°05' W 081°05'0 0.0
2016-Apr-27 04:31N 32°05' W 081°05'0 0.0
2016-Apr-27 03:31N 32°05' W 081°05'0 0.0
2016-Apr-27 02:31N 32°05' W 081°05'0 0.0
2016-Apr-27 01:31N 32°05' W 081°05'0 0.0
2016-Apr-27 00:25N 32°05' W 081°05'0 0.0
2016-Apr-26 23:31N 32°05' W 081°05'0 0.0
2016-Apr-26 22:31N 32°05' W 081°05'0 0.0
2016-Apr-26 21:31N 32°05' W 081°05'0 0.0
2016-Apr-26 20:31N 32°05' W 081°05'0 0.0
2016-Apr-26 19:31N 32°05' W 081°05'0 0.0
2016-Apr-26 18:31N 32°05' W 081°05'0 0.0
2016-Apr-26 17:31N 32°05' W 081°05'0 0.0
2016-Apr-26 16:31N 32°05' W 081°05'0 0.0
2016-Apr-26 15:31N 32°05' W 081°05'0 0.0
2016-Apr-26 14:31N 32°05' W 081°05'0 0.0
2016-Apr-26 13:31N 32°05' W 081°05'0 0.0
2016-Apr-26 12:31N 32°05' W 081°05'0 0.0
2016-Apr-26 11:31N 32°05' W 081°05'0 0.0
2016-Apr-26 10:31N 32°05' W 081°05'0 0.0
2016-Apr-26 09:31N 32°05' W 081°05'0 0.0
2016-Apr-26 08:31N 32°05' W 081°05'0 0.0
2016-Apr-26 07:31N 32°05' W 081°05'0 0.0
2016-Apr-26 06:31N 32°05' W 081°05'0 0.0
2016-Apr-26 05:31N 32°05' W 081°05'0 0.0
2016-Apr-26 04:31N 32°05' W 081°05'0 0.0
2016-Apr-26 03:33N 32°05' W 081°05'5 5.0
2016-Apr-26 02:34N 32°04' W 080°60'3 3.4
2016-Apr-26 01:33N 32°01' W 081°01'6 6.0
2016-Apr-26 00:34N 31°55' W 081°04'5 4.3
2016-Apr-25 23:19N 31°51' W 081°08'  

Dump ship's entire track history